This is the latest recevied weather packets stored in our database for station/object DO7ZT-10. If no packets are shown the sender has not sent any weather packets the latest 10 day(s).
| Time | Temp. | Humidity | Pressure | Rain* | Wind** | Luminosity | Snow |
|---|---|---|---|---|---|---|---|
| 1788027418 | 18.33° C | 68% | 1015.4 hPa | - | - | - | - |
| 1788026518 | 18.89° C | 67% | 1015.3 hPa | - | - | - | - |
| 1788025618 | 19.44° C | 63% | 1015.3 hPa | - | - | - | - |
| 1788024718 | 20.56° C | 59% | 1015.3 hPa | - | - | - | - |
| 1788023818 | 22.22° C | 53% | 1015.3 hPa | - | - | - | - |
| 1788022918 | 22.78° C | 45% | 1015.4 hPa | - | - | - | - |
| 1788022018 | 23.33° C | 43% | 1015.4 hPa | - | - | - | - |
| 1788021118 | 23.33° C | 42% | 1015.5 hPa | - | - | - | - |
| 1788020217 | 23.33° C | 45% | 1015.5 hPa | - | - | - | - |
| 1788019317 | 23.33° C | 41% | 1015.5 hPa | - | - | - | - |
| 1788018417 | 23.33° C | 42% | 1015.6 hPa | - | - | - | - |
| 1788017517 | 23.33° C | 41% | 1015.7 hPa | - | - | - | - |
| 1788016617 | 23.33° C | 41% | 1015.7 hPa | - | - | - | - |
| 1788015717 | 23.89° C | 38% | 1015.7 hPa | - | - | - | - |
| 1788014817 | 23.33° C | 42% | 1015.8 hPa | - | - | - | - |
| 1788013917 | 23.33° C | 41% | 1015.7 hPa | - | - | - | - |
| 1788013017 | 23.89° C | 42% | 1015.7 hPa | - | - | - | - |
| 1788012117 | 22.78° C | 44% | 1015.8 hPa | - | - | - | - |
| 1788011217 | 23.33° C | 43% | 1015.6 hPa | - | - | - | - |
| 1788010317 | 23.89° C | 42% | 1015.7 hPa | - | - | - | - |
| 1788009417 | 23.89° C | 44% | 1015.8 hPa | - | - | - | - |
| 1788008517 | 23.33° C | 41% | 1015.8 hPa | - | - | - | - |
| 1788007616 | 22.78° C | 45% | 1015.7 hPa | - | - | - | - |
| 1788006716 | 22.78° C | 42% | 1015.7 hPa | - | - | - | - |
| 1788005816 | 22.78° C | 45% | 1015.7 hPa | - | - | - | - |
* Rain since midnight (hover to see other rain measurements)
** Current wind speed in m/s (hover to see current wind gust speed)